Time;durP1;ratioP1;P1;durP2;ratioP2;P2;SDS_P1;SDS_P2;PMS_P1;PMS_P2;Temp;Humidity;BMP_temperature;BMP_pressure;BME280_temperature;BME280_humidity;BME280_pressure;Samples;Min_cycle;Max_cycle;Signal;HPM_P1;HPM_P2
2021/11/05 00:00:42;;;;;;;0.00;0.00;;;;;;;;;;5010534;28;20132;-70
2021/11/05 00:03:08;;;;;;;0.00;0.00;;;;;;;;;;5012484;28;20126;-69
2021/11/05 00:05:35;;;;;;;0.00;0.00;;;;;;;;;;5008986;28;20036;-70
2021/11/05 00:08:04;;;;;;;0.00;0.00;;;;;;;;;;5010689;28;20026;-71
2021/11/05 00:10:30;;;;;;;0.00;0.00;;;;;;;;;;5005857;28;20033;-71
2021/11/05 00:12:56;;;;;;;0.05;0.05;;;;;;;;;;5008478;28;20033;-70
2021/11/05 00:15:22;;;;;;;0.00;0.00;;;;;;;;;;5008620;28;20026;-70
2021/11/05 00:17:48;;;;;;;0.00;0.00;;;;;;;;;;5008887;28;20390;-70
2021/11/05 00:20:14;;;;;;;0.00;0.00;;;;;;;;;;5014763;28;20054;-70
2021/11/05 00:22:40;;;;;;;0.00;0.00;;;;;;;;;;5010238;28;20079;-71
2021/11/05 00:25:07;;;;;;;0.00;0.00;;;;;;;;;;5012995;28;20390;-70
2021/11/05 00:27:33;;;;;;;0.08;0.08;;;;;;;;;;5007556;28;20087;-70
2021/11/05 00:29:59;;;;;;;0.00;0.00;;;;;;;;;;5015594;28;20071;-70
2021/11/05 00:32:25;;;;;;;0.00;0.00;;;;;;;;;;5011649;28;20033;-70
2021/11/05 00:34:51;;;;;;;0.00;0.00;;;;;;;;;;5011794;28;20389;-71
2021/11/05 00:37:17;;;;;;;0.03;0.03;;;;;;;;;;5007919;28;20437;-70
2021/11/05 00:39:43;;;;;;;0.00;0.00;;;;;;;;;;5013227;28;20030;-71
2021/11/05 00:42:09;;;;;;;0.08;0.08;;;;;;;;;;5011905;28;20382;-70
2021/11/05 00:44:35;;;;;;;0.20;0.20;;;;;;;;;;5008258;28;20036;-71
2021/11/05 00:47:01;;;;;;;0.00;0.00;;;;;;;;;;5015522;28;20076;-70
2021/11/05 00:49:26;;;;;;;0.00;0.00;;;;;;;;;;5008487;28;20091;-70
2021/11/05 00:51:52;;;;;;;0.00;0.00;;;;;;;;;;5008730;28;20477;-70
2021/11/05 00:54:18;;;;;;;0.00;0.00;;;;;;;;;;5006994;28;20485;-70
2021/11/05 00:56:44;;;;;;;0.00;0.00;;;;;;;;;;5008675;28;20029;-70
2021/11/05 00:59:10;;;;;;;0.00;0.00;;;;;;;;;;5009400;28;20054;-71
2021/11/05 01:01:36;;;;;;;0.00;0.00;;;;;;;;;;5008150;28;20120;-70
2021/11/05 01:04:02;;;;;;;0.10;0.10;;;;;;;;;;5007802;28;20125;-70
2021/11/05 01:06:28;;;;;;;0.08;0.08;;;;;;;;;;5008258;28;20026;-71
2021/11/05 01:08:54;;;;;;;1.35;0.43;;;;;;;;;;5007039;28;20030;-70
2021/11/05 01:11:20;;;;;;;0.00;0.00;;;;;;;;;;5011411;28;20026;-70
2021/11/05 01:13:46;;;;;;;0.00;0.00;;;;;;;;;;5012749;28;20473;-70
2021/11/05 01:16:12;;;;;;;0.05;0.05;;;;;;;;;;5009594;28;20088;-70
2021/11/05 01:18:38;;;;;;;0.00;0.00;;;;;;;;;;5012830;28;20050;-71
2021/11/05 01:21:04;;;;;;;0.13;0.13;;;;;;;;;;5007633;28;20054;-71
2021/11/05 01:23:30;;;;;;;0.13;0.13;;;;;;;;;;5012895;28;20038;-70
2021/11/05 01:25:56;;;;;;;0.20;0.20;;;;;;;;;;5008421;28;20049;-70
2021/11/05 01:28:21;;;;;;;0.10;0.10;;;;;;;;;;5006962;28;20050;-70
2021/11/05 01:30:47;;;;;;;0.20;0.20;;;;;;;;;;5007645;28;20026;-71
2021/11/05 01:33:14;;;;;;;0.00;0.00;;;;;;;;;;5007967;28;20402;-70
2021/11/05 01:35:40;;;;;;;0.00;0.00;;;;;;;;;;5007037;28;20535;-71
2021/11/05 01:38:08;;;;;;;0.10;0.10;;;;;;;;;;5010422;28;20030;-70
2021/11/05 01:40:35;;;;;;;1.38;1.27;;;;;;;;;;5008252;28;20551;-70
2021/11/05 01:43:01;;;;;;;0.52;0.52;;;;;;;;;;5013667;28;20495;-70
2021/11/05 01:45:29;;;;;;;0.10;0.10;;;;;;;;;;5005525;28;20113;-70
2021/11/05 01:47:55;;;;;;;0.00;0.00;;;;;;;;;;5008722;28;20022;-70
2021/11/05 01:50:21;;;;;;;0.52;0.52;;;;;;;;;;5008381;28;20087;-71
2021/11/05 01:52:48;;;;;;;0.30;0.20;;;;;;;;;;5008986;28;20030;-70
2021/11/05 01:55:14;;;;;;;0.00;0.00;;;;;;;;;;5014384;28;20041;-70
2021/11/05 01:57:41;;;;;;;0.03;0.03;;;;;;;;;;5012305;28;20096;-72
2021/11/05 02:00:08;;;;;;;0.73;0.57;;;;;;;;;;5011137;28;20022;-70
2021/11/05 02:02:34;;;;;;;0.00;0.00;;;;;;;;;;5012843;28;20048;-71
2021/11/05 02:05:00;;;;;;;0.10;0.10;;;;;;;;;;5014369;28;20520;-70
2021/11/05 02:07:28;;;;;;;0.13;0.13;;;;;;;;;;5015960;28;20022;-70
2021/11/05 02:09:56;;;;;;;0.00;0.00;;;;;;;;;;5020334;28;20029;-71
2021/11/05 02:12:22;;;;;;;0.00;0.00;;;;;;;;;;5017463;28;20018;-70
2021/11/05 02:14:48;;;;;;;0.05;0.05;;;;;;;;;;5015252;28;20696;-71
2021/11/05 02:17:14;;;;;;;0.00;0.00;;;;;;;;;;5013210;28;20462;-70
2021/11/05 02:19:42;;;;;;;0.00;0.00;;;;;;;;;;5010862;28;20026;-71
2021/11/05 02:22:08;;;;;;;0.00;0.00;;;;;;;;;;5011699;28;20060;-70
2021/11/05 02:24:34;;;;;;;0.00;0.00;;;;;;;;;;5012538;28;20108;-70
2021/11/05 02:27:00;;;;;;;0.00;0.00;;;;;;;;;;5015527;28;20045;-71
2021/11/05 02:29:30;;;;;;;0.00;0.00;;;;;;;;;;5010693;28;20030;-70
2021/11/05 02:31:56;;;;;;;0.00;0.00;;;;;;;;;;5017190;28;20033;-70
2021/11/05 02:34:22;;;;;;;0.00;0.00;;;;;;;;;;5013317;28;20485;-71
2021/11/05 02:36:48;;;;;;;0.00;0.00;;;;;;;;;;5014767;28;20069;-70
2021/11/05 02:39:14;;;;;;;2.63;0.47;;;;;;;;;;5012301;28;20030;-70
2021/11/05 02:41:46;;;;;;;0.00;0.00;;;;;;;;;;5010547;28;20033;-71
2021/11/05 02:44:12;;;;;;;0.10;0.10;;;;;;;;;;5015932;28;20550;-70
2021/11/05 02:46:38;;;;;;;0.00;0.00;;;;;;;;;;5013894;28;20579;-71
2021/11/05 02:49:05;;;;;;;0.00;0.00;;;;;;;;;;5013081;28;20104;-71
2021/11/05 02:51:32;;;;;;;0.00;0.00;;;;;;;;;;5022017;28;20496;-71
2021/11/05 02:53:58;;;;;;;0.10;0.10;;;;;;;;;;5017537;28;20048;-71
2021/11/05 02:56:24;;;;;;;0.00;0.00;;;;;;;;;;5017812;28;20469;-71
2021/11/05 02:58:51;;;;;;;0.00;0.00;;;;;;;;;;5010658;28;20033;-71
2021/11/05 03:01:17;;;;;;;0.25;0.25;;;;;;;;;;5011549;28;20034;-71
2021/11/05 03:03:43;;;;;;;0.00;0.00;;;;;;;;;;5013012;28;20116;-71
2021/11/05 03:06:09;;;;;;;0.08;0.08;;;;;;;;;;5023205;28;20053;-70
2021/11/05 03:08:35;;;;;;;0.00;0.00;;;;;;;;;;5018348;28;20029;-71
2021/11/05 03:11:01;;;;;;;0.10;0.10;;;;;;;;;;5010638;28;20022;-71
2021/11/05 03:13:27;;;;;;;0.22;0.20;;;;;;;;;;5019440;28;20022;-71
2021/11/05 03:15:53;;;;;;;0.00;0.00;;;;;;;;;;5012856;28;20540;-71
2021/11/05 03:18:20;;;;;;;0.20;0.20;;;;;;;;;;5009413;28;20449;-71
2021/11/05 03:20:46;;;;;;;0.00;0.00;;;;;;;;;;5022263;28;20084;-71
2021/11/05 03:23:14;;;;;;;0.00;0.00;;;;;;;;;;5010369;28;20026;-71
2021/11/05 03:25:40;;;;;;;0.38;0.30;;;;;;;;;;5009626;28;20038;-70
2021/11/05 03:28:06;;;;;;;0.00;0.00;;;;;;;;;;5012368;28;20117;-70
2021/11/05 03:30:32;;;;;;;0.47;0.47;;;;;;;;;;5012208;28;20784;-70
2021/11/05 03:32:58;;;;;;;0.10;0.10;;;;;;;;;;5010769;28;20509;-70
2021/11/05 03:35:24;;;;;;;0.08;0.08;;;;;;;;;;5010001;28;20061;-70
2021/11/05 03:37:50;;;;;;;0.00;0.00;;;;;;;;;;5010828;28;20093;-70
2021/11/05 03:40:17;;;;;;;0.00;0.00;;;;;;;;;;5016588;28;20034;-70
2021/11/05 03:42:43;;;;;;;0.40;0.40;;;;;;;;;;5011125;28;20034;-70
2021/11/05 03:45:10;;;;;;;0.08;0.08;;;;;;;;;;5012760;28;20138;-70
2021/11/05 03:47:36;;;;;;;0.30;0.30;;;;;;;;;;5026452;28;20607;-71
2021/11/05 03:50:02;;;;;;;0.00;0.00;;;;;;;;;;5014900;28;20485;-71
2021/11/05 03:52:28;;;;;;;0.00;0.00;;;;;;;;;;5013476;28;20061;-70
2021/11/05 03:54:54;;;;;;;0.00;0.00;;;;;;;;;;5013889;28;20022;-71
2021/11/05 03:57:20;;;;;;;0.00;0.00;;;;;;;;;;5009168;28;20030;-70
2021/11/05 03:59:46;;;;;;;0.00;0.00;;;;;;;;;;5012279;28;20033;-70
2021/11/05 04:02:12;;;;;;;0.00;0.00;;;;;;;;;;5012100;28;20465;-70
2021/11/05 04:04:38;;;;;;;0.10;0.10;;;;;;;;;;5015637;28;20033;-71
2021/11/05 04:07:04;;;;;;;0.00;0.00;;;;;;;;;;5009626;28;20100;-70
2021/11/05 04:09:29;;;;;;;0.10;0.10;;;;;;;;;;5012970;28;20484;-69
2021/11/05 04:11:55;;;;;;;0.00;0.00;;;;;;;;;;5021535;28;20084;-70
2021/11/05 04:14:21;;;;;;;0.10;0.10;;;;;;;;;;5012705;28;20037;-70
2021/11/05 04:16:47;;;;;;;0.00;0.00;;;;;;;;;;5012283;28;20080;-70
2021/11/05 04:19:13;;;;;;;0.40;0.40;;;;;;;;;;5013700;28;20057;-70
2021/11/05 04:21:39;;;;;;;0.73;0.40;;;;;;;;;;5013565;28;20048;-70
2021/11/05 04:24:06;;;;;;;0.28;0.28;;;;;;;;;;5012199;28;20501;-70
2021/11/05 04:26:33;;;;;;;0.20;0.20;;;;;;;;;;5008114;28;20037;-70
2021/11/05 04:28:59;;;;;;;1.25;1.13;;;;;;;;;;5009833;28;20053;-70
2021/11/05 04:31:25;;;;;;;0.38;0.35;;;;;;;;;;5016689;28;20029;-71
2021/11/05 04:33:50;;;;;;;0.55;0.55;;;;;;;;;;5012918;28;20166;-71
2021/11/05 04:36:18;;;;;;;0.65;0.30;;;;;;;;;;5008832;28;20040;-70
2021/11/05 04:38:44;;;;;;;0.38;0.38;;;;;;;;;;5012710;28;20043;-71
2021/11/05 04:41:10;;;;;;;0.20;0.20;;;;;;;;;;5008888;28;20176;-71
2021/11/05 04:43:36;;;;;;;0.25;0.25;;;;;;;;;;5009088;28;20806;-70
2021/11/05 04:46:02;;;;;;;1.02;1.02;;;;;;;;;;5009748;28;20054;-71
2021/11/05 04:48:28;;;;;;;0.45;0.45;;;;;;;;;;5008123;28;20485;-72
2021/11/05 04:50:54;;;;;;;0.08;0.08;;;;;;;;;;5008744;28;20708;-71
2021/11/05 04:53:20;;;;;;;1.17;0.60;;;;;;;;;;5017469;28;20107;-71
2021/11/05 04:55:46;;;;;;;0.20;0.20;;;;;;;;;;5016692;28;20126;-71
2021/11/05 04:58:11;;;;;;;0.05;0.05;;;;;;;;;;5008695;28;20026;-71
2021/11/05 05:00:37;;;;;;;0.17;0.15;;;;;;;;;;5016487;28;20033;-71
2021/11/05 05:03:04;;;;;;;0.85;0.57;;;;;;;;;;5014854;28;20044;-71
2021/11/05 05:05:29;;;;;;;0.25;0.25;;;;;;;;;;5018098;28;20040;-71
2021/11/05 05:07:57;;;;;;;0.73;0.73;;;;;;;;;;5009605;28;20025;-71
2021/11/05 05:10:23;;;;;;;0.47;0.47;;;;;;;;;;5012686;28;20021;-71
2021/11/05 05:12:49;;;;;;;0.10;0.10;;;;;;;;;;5013918;28;20031;-71
2021/11/05 05:15:16;;;;;;;0.20;0.20;;;;;;;;;;5011711;28;20122;-71
2021/11/05 05:17:42;;;;;;;0.52;0.52;;;;;;;;;;5007938;28;20029;-71
2021/11/05 05:20:09;;;;;;;0.15;0.15;;;;;;;;;;5014686;28;20046;-71
2021/11/05 05:22:36;;;;;;;0.93;0.52;;;;;;;;;;5006725;28;20034;-71
2021/11/05 05:25:03;;;;;;;0.60;0.60;;;;;;;;;;5015685;28;20036;-71
2021/11/05 05:27:29;;;;;;;2.13;1.38;;;;;;;;;;5010481;28;20055;-72
2021/11/05 05:29:56;;;;;;;0.20;0.20;;;;;;;;;;5015263;28;20480;-71
2021/11/05 05:32:22;;;;;;;1.55;1.13;;;;;;;;;;5008944;28;20566;-71
2021/11/05 05:34:49;;;;;;;0.80;0.80;;;;;;;;;;5008430;28;20025;-71
2021/11/05 05:37:14;;;;;;;1.10;0.50;;;;;;;;;;5004384;28;20567;-73
2021/11/05 05:39:41;;;;;;;1.05;0.82;;;;;;;;;;5007230;28;20054;-72
2021/11/05 05:42:06;;;;;;;0.50;0.50;;;;;;;;;;5011607;28;20490;-71
2021/11/05 05:44:34;;;;;;;0.70;0.65;;;;;;;;;;5011495;28;20038;-71
2021/11/05 05:47:00;;;;;;;7.57;2.28;;;;;;;;;;5011424;28;20030;-71
2021/11/05 05:49:26;;;;;;;0.70;0.70;;;;;;;;;;5011879;28;20104;-71
2021/11/05 05:51:52;;;;;;;0.90;0.90;;;;;;;;;;5013818;28;20101;-71
2021/11/05 05:54:18;;;;;;;4.30;1.92;;;;;;;;;;5011099;28;20088;-72
2021/11/05 05:56:44;;;;;;;3.40;1.13;;;;;;;;;;5012408;28;20041;-71
2021/11/05 05:59:31;;;;;;;0.40;0.40;;;;;;;;;;5005342;28;20049;-71
2021/11/05 06:01:56;;;;;;;0.45;0.45;;;;;;;;;;5008792;28;20077;-71
2021/11/05 06:04:23;;;;;;;0.47;0.47;;;;;;;;;;5010142;28;20066;-71
2021/11/05 06:06:49;;;;;;;0.77;0.77;;;;;;;;;;5010447;28;20037;-70
2021/11/05 06:09:15;;;;;;;0.93;0.93;;;;;;;;;;5014873;28;20109;-71
2021/11/05 06:11:41;;;;;;;0.38;0.38;;;;;;;;;;5010904;28;20154;-71
2021/11/05 06:14:07;;;;;;;7.88;0.75;;;;;;;;;;5009976;28;20026;-70
2021/11/05 06:16:33;;;;;;;1.02;0.75;;;;;;;;;;5009411;28;20029;-71
2021/11/05 06:19:00;;;;;;;0.20;0.20;;;;;;;;;;5009457;28;20164;-71
2021/11/05 06:21:26;;;;;;;0.82;0.57;;;;;;;;;;5010022;28;20050;-71
2021/11/05 06:23:53;;;;;;;0.43;0.43;;;;;;;;;;5010340;28;20026;-71
2021/11/05 06:26:19;;;;;;;0.00;0.00;;;;;;;;;;5010415;28;20030;-72
2021/11/05 06:28:45;;;;;;;0.43;0.43;;;;;;;;;;5011184;28;20026;-71
2021/11/05 06:31:11;;;;;;;0.77;0.70;;;;;;;;;;5010398;28;20026;-71
2021/11/05 06:33:37;;;;;;;0.50;0.50;;;;;;;;;;5010549;28;20026;-70
2021/11/05 06:36:03;;;;;;;2.80;0.50;;;;;;;;;;5011240;28;20033;-70
2021/11/05 06:38:29;;;;;;;1.00;0.40;;;;;;;;;;5015215;28;20100;-71
2021/11/05 06:40:57;;;;;;;1.33;1.25;;;;;;;;;;5009839;28;20034;-72
2021/11/05 06:43:23;;;;;;;0.88;0.85;;;;;;;;;;5011729;28;20037;-71
2021/11/05 06:45:49;;;;;;;0.60;0.60;;;;;;;;;;5010982;28;20018;-72
2021/11/05 06:48:15;;;;;;;0.77;0.75;;;;;;;;;;5011768;28;20033;-71
2021/11/05 06:50:42;;;;;;;0.35;0.35;;;;;;;;;;5009590;28;20021;-70
2021/11/05 06:53:08;;;;;;;0.75;0.75;;;;;;;;;;5010369;28;20034;-73
2021/11/05 06:55:34;;;;;;;1.27;0.43;;;;;;;;;;5009370;28;20029;-76
2021/11/05 06:58:00;;;;;;;0.55;0.50;;;;;;;;;;5008742;28;20084;-76
2021/11/05 07:00:26;;;;;;;1.13;0.55;;;;;;;;;;5010132;28;20065;-77
2021/11/05 07:02:52;;;;;;;0.98;0.35;;;;;;;;;;5010544;28;20034;-76
2021/11/05 07:05:19;;;;;;;0.40;0.30;;;;;;;;;;5016180;28;20033;-76
2021/11/05 07:07:45;;;;;;;1.10;0.98;;;;;;;;;;5012211;28;20112;-76
2021/11/05 07:10:12;;;;;;;0.20;0.20;;;;;;;;;;5009952;28;20030;-77
2021/11/05 07:12:39;;;;;;;1.40;1.30;;;;;;;;;;5010100;28;20045;-76
2021/11/05 07:15:06;;;;;;;0.73;0.73;;;;;;;;;;5009489;28;20029;-75
2021/11/05 07:17:32;;;;;;;0.93;0.55;;;;;;;;;;5009217;28;20037;-76
2021/11/05 07:19:58;;;;;;;0.32;0.32;;;;;;;;;;5010007;28;20046;-75
2021/11/05 07:22:24;;;;;;;0.57;0.57;;;;;;;;;;5009888;28;20039;-71
2021/11/05 07:24:52;;;;;;;2.58;0.65;;;;;;;;;;5007404;28;20034;-71
2021/11/05 07:27:18;;;;;;;0.40;0.40;;;;;;;;;;5007376;28;20014;-70
2021/11/05 07:29:44;;;;;;;0.20;0.20;;;;;;;;;;5003174;28;20025;-70
2021/11/05 07:32:10;;;;;;;3.55;1.92;;;;;;;;;;5005702;28;20555;-71
2021/11/05 07:34:37;;;;;;;0.10;0.10;;;;;;;;;;5003916;28;20167;-70
2021/11/05 07:37:07;;;;;;;1.80;0.68;;;;;;;;;;5007155;28;20549;-69
2021/11/05 07:39:32;;;;;;;0.30;0.30;;;;;;;;;;5009619;28;20439;-69
2021/11/05 07:41:58;;;;;;;5.57;1.67;;;;;;;;;;5012133;28;20034;-70
2021/11/05 07:44:24;;;;;;;2.85;0.82;;;;;;;;;;5009114;28;20125;-69
2021/11/05 07:46:51;;;;;;;1.13;1.02;;;;;;;;;;5003443;28;20033;-69
2021/11/05 07:49:17;;;;;;;0.50;0.50;;;;;;;;;;5009676;28;20026;-69
2021/11/05 07:51:43;;;;;;;1.15;0.70;;;;;;;;;;5008883;28;20061;-69
2021/11/05 07:54:09;;;;;;;2.38;0.25;;;;;;;;;;5009450;28;20057;-70
2021/11/05 07:56:35;;;;;;;0.30;0.30;;;;;;;;;;5008963;28;20526;-69
2021/11/05 07:59:02;;;;;;;1.00;0.85;;;;;;;;;;5009333;28;20030;-69
2021/11/05 08:01:27;;;;;;;0.10;0.10;;;;;;;;;;5009120;28;20508;-68
2021/11/05 08:03:53;;;;;;;0.43;0.43;;;;;;;;;;5008698;28;20030;-69
2021/11/05 08:06:19;;;;;;;1.13;1.08;;;;;;;;;;5009102;28;20072;-68
2021/11/05 08:08:45;;;;;;;0.50;0.50;;;;;;;;;;5009508;28;20433;-68
2021/11/05 08:11:12;;;;;;;2.38;0.85;;;;;;;;;;5003164;28;20034;-69
2021/11/05 08:13:38;;;;;;;2.25;1.10;;;;;;;;;;5013073;28;20061;-69
2021/11/05 08:16:04;;;;;;;0.22;0.22;;;;;;;;;;5011896;28;20517;-68
2021/11/05 08:18:30;;;;;;;0.25;0.25;;;;;;;;;;5005276;28;20025;-69
2021/11/05 08:20:56;;;;;;;1.55;1.08;;;;;;;;;;5007782;28;20093;-68
2021/11/05 08:23:22;;;;;;;0.50;0.50;;;;;;;;;;5009020;28;20026;-69
2021/11/05 08:25:48;;;;;;;1.58;0.90;;;;;;;;;;5017383;28;20041;-69
2021/11/05 08:28:15;;;;;;;0.30;0.30;;;;;;;;;;5014742;28;20025;-69
2021/11/05 08:30:41;;;;;;;0.80;0.80;;;;;;;;;;5012078;28;20216;-69
2021/11/05 08:33:07;;;;;;;0.20;0.20;;;;;;;;;;5015611;28;20156;-69
2021/11/05 08:35:33;;;;;;;0.52;0.52;;;;;;;;;;5009638;28;20108;-70
2021/11/05 08:38:00;;;;;;;0.43;0.43;;;;;;;;;;5009489;28;20045;-69
2021/11/05 08:40:26;;;;;;;1.05;0.93;;;;;;;;;;5012412;28;20036;-69
2021/11/05 08:42:52;;;;;;;0.98;0.57;;;;;;;;;;5008872;28;20065;-70
2021/11/05 08:45:18;;;;;;;2.95;1.23;;;;;;;;;;5010057;28;20029;-69
2021/11/05 08:47:44;;;;;;;0.30;0.30;;;;;;;;;;5012101;28;20523;-69
2021/11/05 08:50:12;;;;;;;0.10;0.10;;;;;;;;;;5008936;28;20033;-69
2021/11/05 08:52:39;;;;;;;0.30;0.30;;;;;;;;;;5009420;28;20033;-69
2021/11/05 08:55:05;;;;;;;6.22;1.48;;;;;;;;;;5017529;28;20096;-69
2021/11/05 08:57:32;;;;;;;0.40;0.40;;;;;;;;;;5011731;28;20035;-69
2021/11/05 08:59:58;;;;;;;0.47;0.40;;;;;;;;;;5007096;28;20034;-70
2021/11/05 09:02:25;;;;;;;0.17;0.17;;;;;;;;;;5007805;28;20026;-70
2021/11/05 09:04:51;;;;;;;0.20;0.20;;;;;;;;;;5008188;28;20121;-69
2021/11/05 09:07:17;;;;;;;0.45;0.45;;;;;;;;;;5007766;28;20093;-69
2021/11/05 09:09:43;;;;;;;1.45;0.45;;;;;;;;;;5007397;28;20034;-69
2021/11/05 09:12:09;;;;;;;0.45;0.45;;;;;;;;;;5005248;28;20503;-69
2021/11/05 09:14:35;;;;;;;2.20;1.05;;;;;;;;;;5008460;28;20473;-69
2021/11/05 09:17:01;;;;;;;1.75;0.63;;;;;;;;;;5012154;28;20037;-69
2021/11/05 09:19:27;;;;;;;0.10;0.10;;;;;;;;;;5012115;28;20033;-69
2021/11/05 09:21:53;;;;;;;0.55;0.55;;;;;;;;;;5012454;28;20033;-69
2021/11/05 09:24:19;;;;;;;0.10;0.10;;;;;;;;;;5012207;28;20034;-69
2021/11/05 09:26:45;;;;;;;0.20;0.20;;;;;;;;;;5011771;28;20029;-69
2021/11/05 09:29:13;;;;;;;0.30;0.30;;;;;;;;;;5011872;28;20037;-69
2021/11/05 09:31:39;;;;;;;0.60;0.60;;;;;;;;;;5011892;28;20025;-70
2021/11/05 09:34:05;;;;;;;0.85;0.70;;;;;;;;;;5012127;28;20033;-70
2021/11/05 09:36:31;;;;;;;0.08;0.05;;;;;;;;;;5011932;28;20473;-69
2021/11/05 09:38:57;;;;;;;0.75;0.40;;;;;;;;;;5011939;28;20030;-69
2021/11/05 09:41:23;;;;;;;0.63;0.63;;;;;;;;;;5012015;28;20546;-69
2021/11/05 09:43:49;;;;;;;0.00;0.00;;;;;;;;;;5011408;28;20034;-70
2021/11/05 09:46:15;;;;;;;0.20;0.20;;;;;;;;;;5012177;28;20092;-69
2021/11/05 09:48:43;;;;;;;0.52;0.52;;;;;;;;;;5011848;28;20021;-69
2021/11/05 09:51:09;;;;;;;1.95;0.70;;;;;;;;;;5011009;28;20022;-69
2021/11/05 09:53:37;;;;;;;0.38;0.38;;;;;;;;;;5011393;28;20030;-69
2021/11/05 09:56:04;;;;;;;0.75;0.68;;;;;;;;;;5011294;28;20034;-69
2021/11/05 09:58:30;;;;;;;1.13;0.88;;;;;;;;;;5012047;28;20109;-69
2021/11/05 10:00:56;;;;;;;1.08;1.00;;;;;;;;;;5011483;28;20551;-70
2021/11/05 10:03:22;;;;;;;0.30;0.30;;;;;;;;;;5011931;28;20216;-69
2021/11/05 10:05:50;;;;;;;0.13;0.13;;;;;;;;;;5011002;28;20051;-70
2021/11/05 10:08:25;;;;;;;1.08;0.85;;;;;;;;;;5011353;28;20036;-70
2021/11/05 10:10:51;;;;;;;0.68;0.65;;;;;;;;;;5011007;28;20022;-69
2021/11/05 10:13:22;;;;;;;0.28;0.28;;;;;;;;;;5011316;28;20033;-70
2021/11/05 10:15:48;;;;;;;;;;;;;;;;;;5011113;28;20113;-69
2021/11/05 10:18:17;;;;;;;0.10;0.10;;;;;;;;;;5011175;28;20365;-69
2021/11/05 10:20:44;;;;;;;0.85;0.65;;;;;;;;;;5011032;28;20085;-69
2021/11/05 10:23:11;;;;;;;0.00;0.00;;;;;;;;;;5011086;28;20030;-69
2021/11/05 10:25:38;;;;;;;0.10;0.10;;;;;;;;;;5010552;28;20034;-69
2021/11/05 10:28:09;;;;;;;0.28;0.28;;;;;;;;;;5010447;28;20033;-69
2021/11/05 10:30:51;;;;;;;0.70;0.70;;;;;;;;;;5011360;28;20029;-70
2021/11/05 10:33:19;;;;;;;0.45;0.38;;;;;;;;;;5010867;28;20038;-69
2021/11/05 10:35:46;;;;;;;0.50;0.50;;;;;;;;;;5009097;28;20048;-69
2021/11/05 10:38:13;;;;;;;0.50;0.50;;;;;;;;;;5011064;28;20029;-69
2021/11/05 10:40:42;;;;;;;0.20;0.20;;;;;;;;;;5010883;28;20029;-69
2021/11/05 10:43:08;;;;;;;0.73;0.73;;;;;;;;;;5010408;28;20030;-70
2021/11/05 10:45:36;;;;;;;0.10;0.10;;;;;;;;;;5009993;28;20489;-69
2021/11/05 10:48:04;;;;;;;0.80;0.80;;;;;;;;;;5010412;28;20098;-69
2021/11/05 10:50:32;;;;;;;0.17;0.10;;;;;;;;;;5010892;28;20018;-69
2021/11/05 10:53:02;;;;;;;1.85;0.43;;;;;;;;;;5010272;28;20051;-69
2021/11/05 10:55:38;;;;;;;0.10;0.10;;;;;;;;;;5010370;28;20030;-69
2021/11/05 10:58:04;;;;;;;0.28;0.28;;;;;;;;;;5010057;28;20129;-69
2021/11/05 11:00:31;;;;;;;0.00;0.00;;;;;;;;;;5009943;28;20121;-69
2021/11/05 11:03:07;;;;;;;17.00;2.03;;;;;;;;;;5010073;28;20026;-70
2021/11/05 11:05:34;;;;;;;0.35;0.35;;;;;;;;;;5010130;28;20029;-69
2021/11/05 11:08:01;;;;;;;0.90;0.65;;;;;;;;;;5010069;28;20114;-70
2021/11/05 11:10:28;;;;;;;0.30;0.30;;;;;;;;;;5010157;28;20485;-69
2021/11/05 11:12:54;;;;;;;0.30;0.30;;;;;;;;;;5009770;28;20030;-69
2021/11/05 11:15:36;;;;;;;0.85;0.28;;;;;;;;;;5010007;28;20029;-70
2021/11/05 11:18:03;;;;;;;0.00;0.00;;;;;;;;;;5010255;28;20061;-69
2021/11/05 11:20:30;;;;;;;0.00;0.00;;;;;;;;;;5009402;28;20413;-69
2021/11/05 11:22:57;;;;;;;0.10;0.10;;;;;;;;;;5009668;28;20026;-70
2021/11/05 11:25:23;;;;;;;0.57;0.57;;;;;;;;;;5010047;28;20116;-70
2021/11/05 11:27:49;;;;;;;0.65;0.65;;;;;;;;;;5009705;28;20487;-70
2021/11/05 11:30:15;;;;;;;0.00;0.00;;;;;;;;;;5012982;28;20030;-69
2021/11/05 11:32:42;;;;;;;2.03;0.73;;;;;;;;;;5014624;28;20026;-68
2021/11/05 11:35:08;;;;;;;1.33;0.45;;;;;;;;;;5013703;28;20040;-69
2021/11/05 11:37:34;;;;;;;0.00;0.00;;;;;;;;;;5011524;28;20030;-69
2021/11/05 11:40:00;;;;;;;0.17;0.17;;;;;;;;;;5008755;28;20407;-68
2021/11/05 11:42:26;;;;;;;0.13;0.13;;;;;;;;;;5003097;28;20048;-70
2021/11/05 11:44:52;;;;;;;0.00;0.00;;;;;;;;;;5005739;28;20034;-69
2021/11/05 11:47:18;;;;;;;0.05;0.05;;;;;;;;;;5000399;28;20032;-70
2021/11/05 11:49:46;;;;;;;1.20;1.17;;;;;;;;;;5001527;28;20076;-69
2021/11/05 11:52:14;;;;;;;0.28;0.28;;;;;;;;;;5005569;28;20022;-69
2021/11/05 11:54:42;;;;;;;0.45;0.45;;;;;;;;;;5009003;28;20469;-69
2021/11/05 11:57:12;;;;;;;1.98;1.65;;;;;;;;;;5010834;28;20036;-70
2021/11/05 11:59:39;;;;;;;1.00;0.57;;;;;;;;;;5008720;28;20381;-70
2021/11/05 12:02:25;;;;;;;0.77;0.75;;;;;;;;;;5007031;28;20127;-70
2021/11/05 12:04:51;;;;;;;0.52;0.15;;;;;;;;;;4999174;28;20086;-69
2021/11/05 12:07:17;;;;;;;1.15;0.35;;;;;;;;;;5007222;28;20444;-69
2021/11/05 12:09:43;;;;;;;3.15;1.40;;;;;;;;;;5008604;28;20034;-69
2021/11/05 12:12:29;;;;;;;2.28;0.93;;;;;;;;;;5008643;28;20108;-69
2021/11/05 12:15:01;;;;;;;0.10;0.10;;;;;;;;;;5008021;28;20076;-69
2021/11/05 12:17:28;;;;;;;1.00;0.30;;;;;;;;;;5010056;28;20025;-70
2021/11/05 12:19:59;;;;;;;0.63;0.30;;;;;;;;;;5007793;28;20401;-70
2021/11/05 12:22:26;;;;;;;0.20;0.20;;;;;;;;;;5008223;28;20056;-70
2021/11/05 12:24:52;;;;;;;0.25;0.25;;;;;;;;;;5007290;28;20018;-68
2021/11/05 12:27:27;;;;;;;0.15;0.15;;;;;;;;;;5008999;28;20042;-69
2021/11/05 12:29:54;;;;;;;0.10;0.10;;;;;;;;;;5007512;28;20014;-68
2021/11/05 12:32:22;;;;;;;0.45;0.32;;;;;;;;;;5008299;28;20014;-70
2021/11/05 12:34:56;;;;;;;0.10;0.10;;;;;;;;;;5004502;28;20497;-68
2021/11/05 12:37:41;;;;;;;0.88;0.68;;;;;;;;;;5011572;28;20048;-69
2021/11/05 12:40:23;;;;;;;1.63;0.98;;;;;;;;;;5008318;28;20508;-69
2021/11/05 12:42:50;;;;;;;0.47;0.47;;;;;;;;;;5011925;28;20121;-70
2021/11/05 12:45:16;;;;;;;1.45;0.75;;;;;;;;;;5009047;28;20026;-70
2021/11/05 12:47:50;;;;;;;3.85;0.52;;;;;;;;;;5014387;28;20028;-69
2021/11/05 12:50:18;;;;;;;0.10;0.10;;;;;;;;;;5003556;28;20515;-69
2021/11/05 12:52:51;;;;;;;0.45;0.45;;;;;;;;;;5008843;28;20037;-69
2021/11/05 12:55:17;;;;;;;0.20;0.20;;;;;;;;;;5002068;28;20511;-68
2021/11/05 12:57:50;;;;;;;0.20;0.20;;;;;;;;;;5003352;28;20030;-68
2021/11/05 13:00:18;;;;;;;0.35;0.35;;;;;;;;;;5009916;28;20584;-70
2021/11/05 13:02:49;;;;;;;0.00;0.00;;;;;;;;;;5010379;28;20030;-71
2021/11/05 13:05:16;;;;;;;0.30;0.30;;;;;;;;;;5007840;28;20794;-71
2021/11/05 13:07:51;;;;;;;0.40;0.40;;;;;;;;;;5006754;28;20057;-70
2021/11/05 13:10:27;;;;;;;0.13;0.13;;;;;;;;;;5002789;28;20447;-71
2021/11/05 13:12:54;;;;;;;0.00;0.00;;;;;;;;;;5009563;28;20033;-71
2021/11/05 13:15:21;;;;;;;0.93;0.77;;;;;;;;;;5005961;28;20030;-71
2021/11/05 13:17:47;;;;;;;7.82;0.63;;;;;;;;;;5009527;28;20037;-71
2021/11/05 13:20:18;;;;;;;0.13;0.13;;;;;;;;;;5010561;28;20255;-71
2021/11/05 13:22:45;;;;;;;1.58;0.80;;;;;;;;;;5009861;28;20037;-72
2021/11/05 13:25:18;;;;;;;6.15;1.77;;;;;;;;;;5009414;28;20066;-71
2021/11/05 13:27:45;;;;;;;1.15;0.88;;;;;;;;;;5008111;28;20026;-72
2021/11/05 13:30:11;;;;;;;0.43;0.43;;;;;;;;;;5006516;28;20033;-71
2021/11/05 13:32:37;;;;;;;0.20;0.20;;;;;;;;;;5007348;28;20030;-72
2021/11/05 13:35:04;;;;;;;0.32;0.32;;;;;;;;;;5007731;28;20058;-71
2021/11/05 13:37:32;;;;;;;0.47;0.45;;;;;;;;;;5007016;28;20025;-71
2021/11/05 13:39:58;;;;;;;0.82;0.82;;;;;;;;;;5006887;28;20109;-72
2021/11/05 13:42:25;;;;;;;1.08;0.60;;;;;;;;;;5008790;28;20026;-71
2021/11/05 13:45:06;;;;;;;1.08;0.43;;;;;;;;;;5005467;28;20018;-72
2021/11/05 13:47:32;;;;;;;0.25;0.25;;;;;;;;;;5008008;28;20029;-71
2021/11/05 13:49:58;;;;;;;1.17;0.82;;;;;;;;;;5004899;28;20022;-71
2021/11/05 13:52:24;;;;;;;0.25;0.25;;;;;;;;;;5008372;28;20049;-72
2021/11/05 13:54:50;;;;;;;4.75;2.22;;;;;;;;;;5014501;28;20481;-71
2021/11/05 13:57:17;;;;;;;0.20;0.20;;;;;;;;;;5008808;28;20041;-72
2021/11/05 13:59:48;;;;;;;0.68;0.65;;;;;;;;;;5007896;28;20034;-71
2021/11/05 14:02:14;;;;;;;0.03;0.03;;;;;;;;;;5013509;28;20054;-72
2021/11/05 14:04:40;;;;;;;0.10;0.10;;;;;;;;;;5013413;28;20535;-71
2021/11/05 14:07:10;;;;;;;1.15;0.88;;;;;;;;;;5011909;28;20021;-71
2021/11/05 14:09:36;;;;;;;0.47;0.47;;;;;;;;;;5011798;28;20028;-71
2021/11/05 14:12:03;;;;;;;0.47;0.47;;;;;;;;;;5011587;28;20026;-71
2021/11/05 14:14:34;;;;;;;0.30;0.30;;;;;;;;;;5026484;28;20057;-71
2021/11/05 14:17:02;;;;;;;0.10;0.10;;;;;;;;;;5018755;28;20385;-71
2021/11/05 14:19:29;;;;;;;0.47;0.47;;;;;;;;;;5017001;28;20033;-71
2021/11/05 14:22:06;;;;;;;0.28;0.28;;;;;;;;;;5008369;28;20382;-71
2021/11/05 14:24:34;;;;;;;0.17;0.17;;;;;;;;;;5022242;28;20034;-72
2021/11/05 14:27:15;;;;;;;1.25;1.15;;;;;;;;;;5011378;28;20393;-71
2021/11/05 14:29:43;;;;;;;0.00;0.00;;;;;;;;;;5011388;28;20018;-71
2021/11/05 14:32:10;;;;;;;0.10;0.10;;;;;;;;;;5010726;28;20018;-72
2021/11/05 14:35:12;;;;;;;1.75;1.05;;;;;;;;;;5011439;28;20034;-71
2021/11/05 14:37:42;;;;;;;0.35;0.20;;;;;;;;;;4967912;28;20062;-72
2021/11/05 14:40:14;;;;;;;0.40;0.40;;;;;;;;;;5001429;28;20034;-72
2021/11/05 14:42:40;;;;;;;0.60;0.40;;;;;;;;;;5007874;28;20025;-74